sensor_id;sensor_type;location;lat;lon;timestamp;P1;durP1;ratioP1;P2;durP2;ratioP2
74487;SDS011;63019;51.080;13.642;2023-06-14T00:00:25;2.90;;;1.10;;
74487;SDS011;63019;51.080;13.642;2023-06-14T00:01:27;3.30;;;1.10;;
74487;SDS011;63019;51.080;13.642;2023-06-14T00:02:30;3.10;;;1.20;;
74487;SDS011;63019;51.080;13.642;2023-06-14T00:03:32;1.85;;;0.90;;
74487;SDS011;63019;51.080;13.642;2023-06-14T00:04:34;3.45;;;1.10;;
74487;SDS011;63019;51.080;13.642;2023-06-14T00:05:37;5.28;;;1.25;;
74487;SDS011;63019;51.080;13.642;2023-06-14T00:06:42;2.60;;;1.20;;
74487;SDS011;63019;51.080;13.642;2023-06-14T00:07:46;2.47;;;1.40;;
74487;SDS011;63019;51.080;13.642;2023-06-14T00:08:49;5.10;;;1.25;;
74487;SDS011;63019;51.080;13.642;2023-06-14T00:09:52;2.07;;;1.17;;
74487;SDS011;63019;51.080;13.642;2023-06-14T00:10:54;2.75;;;1.20;;
74487;SDS011;63019;51.080;13.642;2023-06-14T00:11:55;4.53;;;1.33;;
74487;SDS011;63019;51.080;13.642;2023-06-14T00:12:57;4.35;;;1.10;;
74487;SDS011;63019;51.080;13.642;2023-06-14T00:14:01;2.88;;;1.02;;
74487;SDS011;63019;51.080;13.642;2023-06-14T00:15:05;3.30;;;1.00;;
74487;SDS011;63019;51.080;13.642;2023-06-14T00:16:07;2.92;;;1.23;;
74487;SDS011;63019;51.080;13.642;2023-06-14T00:17:09;3.28;;;1.00;;
74487;SDS011;63019;51.080;13.642;2023-06-14T00:18:11;4.05;;;1.10;;
74487;SDS011;63019;51.080;13.642;2023-06-14T00:19:13;3.38;;;1.17;;
74487;SDS011;63019;51.080;13.642;2023-06-14T00:20:15;3.53;;;1.20;;
74487;SDS011;63019;51.080;13.642;2023-06-14T00:21:17;3.05;;;1.20;;
74487;SDS011;63019;51.080;13.642;2023-06-14T00:22:20;4.70;;;1.38;;
74487;SDS011;63019;51.080;13.642;2023-06-14T00:23:22;4.28;;;1.40;;
74487;SDS011;63019;51.080;13.642;2023-06-14T00:24:24;3.75;;;1.23;;
74487;SDS011;63019;51.080;13.642;2023-06-14T00:25:26;5.78;;;1.10;;
74487;SDS011;63019;51.080;13.642;2023-06-14T00:26:30;2.50;;;1.25;;
74487;SDS011;63019;51.080;13.642;2023-06-14T00:27:32;4.50;;;1.10;;
74487;SDS011;63019;51.080;13.642;2023-06-14T00:28:34;1.63;;;1.00;;
74487;SDS011;63019;51.080;13.642;2023-06-14T00:29:36;2.70;;;1.20;;
74487;SDS011;63019;51.080;13.642;2023-06-14T00:30:38;4.37;;;1.10;;
74487;SDS011;63019;51.080;13.642;2023-06-14T00:31:39;4.53;;;1.40;;
74487;SDS011;63019;51.080;13.642;2023-06-14T00:32:41;2.92;;;1.58;;
74487;SDS011;63019;51.080;13.642;2023-06-14T00:33:44;3.33;;;1.20;;
74487;SDS011;63019;51.080;13.642;2023-06-14T00:34:46;2.80;;;1.30;;
74487;SDS011;63019;51.080;13.642;2023-06-14T00:35:48;4.05;;;1.30;;
74487;SDS011;63019;51.080;13.642;2023-06-14T00:36:49;3.30;;;1.30;;
74487;SDS011;63019;51.080;13.642;2023-06-14T00:37:51;3.10;;;1.40;;
74487;SDS011;63019;51.080;13.642;2023-06-14T00:38:55;5.07;;;1.23;;
74487;SDS011;63019;51.080;13.642;2023-06-14T00:39:57;3.72;;;1.48;;
74487;SDS011;63019;51.080;13.642;2023-06-14T00:40:59;1.40;;;1.10;;
74487;SDS011;63019;51.080;13.642;2023-06-14T00:42:01;2.58;;;1.02;;
74487;SDS011;63019;51.080;13.642;2023-06-14T00:43:03;8.50;;;1.50;;
74487;SDS011;63019;51.080;13.642;2023-06-14T00:44:05;3.38;;;1.08;;
74487;SDS011;63019;51.080;13.642;2023-06-14T00:45:07;2.85;;;1.27;;
74487;SDS011;63019;51.080;13.642;2023-06-14T00:46:10;5.43;;;2.38;;
74487;SDS011;63019;51.080;13.642;2023-06-14T00:47:11;2.17;;;1.10;;
74487;SDS011;63019;51.080;13.642;2023-06-14T00:48:13;3.67;;;1.20;;
74487;SDS011;63019;51.080;13.642;2023-06-14T00:49:16;2.47;;;1.13;;
74487;SDS011;63019;51.080;13.642;2023-06-14T00:50:19;5.95;;;1.40;;
74487;SDS011;63019;51.080;13.642;2023-06-14T00:51:22;4.10;;;1.10;;
74487;SDS011;63019;51.080;13.642;2023-06-14T00:52:24;4.95;;;1.25;;
74487;SDS011;63019;51.080;13.642;2023-06-14T00:53:26;4.20;;;1.40;;
74487;SDS011;63019;51.080;13.642;2023-06-14T00:54:28;2.50;;;1.25;;
74487;SDS011;63019;51.080;13.642;2023-06-14T00:55:30;2.35;;;1.40;;
74487;SDS011;63019;51.080;13.642;2023-06-14T00:56:35;3.55;;;1.48;;
74487;SDS011;63019;51.080;13.642;2023-06-14T00:57:37;3.08;;;1.38;;
74487;SDS011;63019;51.080;13.642;2023-06-14T00:58:41;2.97;;;1.27;;
74487;SDS011;63019;51.080;13.642;2023-06-14T00:59:45;7.10;;;1.25;;
74487;SDS011;63019;51.080;13.642;2023-06-14T01:00:48;2.88;;;1.20;;
74487;SDS011;63019;51.080;13.642;2023-06-14T01:01:50;2.90;;;1.10;;
74487;SDS011;63019;51.080;13.642;2023-06-14T01:02:52;4.60;;;1.58;;
74487;SDS011;63019;51.080;13.642;2023-06-14T01:03:55;6.20;;;1.27;;
74487;SDS011;63019;51.080;13.642;2023-06-14T01:04:57;2.47;;;1.30;;
74487;SDS011;63019;51.080;13.642;2023-06-14T01:06:01;4.70;;;1.50;;
74487;SDS011;63019;51.080;13.642;2023-06-14T01:07:23;2.13;;;1.27;;
74487;SDS011;63019;51.080;13.642;2023-06-14T01:08:39;4.40;;;1.70;;
74487;SDS011;63019;51.080;13.642;2023-06-14T01:11:22;3.35;;;1.38;;
74487;SDS011;63019;51.080;13.642;2023-06-14T01:13:40;4.00;;;1.30;;
74487;SDS011;63019;51.080;13.642;2023-06-14T01:14:47;1.52;;;1.10;;
74487;SDS011;63019;51.080;13.642;2023-06-14T01:15:50;7.75;;;1.40;;
74487;SDS011;63019;51.080;13.642;2023-06-14T01:16:53;5.80;;;1.55;;
74487;SDS011;63019;51.080;13.642;2023-06-14T01:17:57;3.42;;;1.40;;
74487;SDS011;63019;51.080;13.642;2023-06-14T01:19:04;5.55;;;1.70;;
74487;SDS011;63019;51.080;13.642;2023-06-14T01:20:10;2.40;;;1.30;;
74487;SDS011;63019;51.080;13.642;2023-06-14T01:21:22;2.70;;;1.50;;
74487;SDS011;63019;51.080;13.642;2023-06-14T01:22:26;2.72;;;1.38;;
74487;SDS011;63019;51.080;13.642;2023-06-14T01:23:28;4.55;;;1.50;;
74487;SDS011;63019;51.080;13.642;2023-06-14T01:24:33;5.30;;;1.53;;
74487;SDS011;63019;51.080;13.642;2023-06-14T01:25:36;5.50;;;1.58;;
74487;SDS011;63019;51.080;13.642;2023-06-14T01:26:38;7.00;;;1.50;;
74487;SDS011;63019;51.080;13.642;2023-06-14T01:27:48;2.38;;;1.50;;
74487;SDS011;63019;51.080;13.642;2023-06-14T01:28:52;3.35;;;1.45;;
74487;SDS011;63019;51.080;13.642;2023-06-14T01:29:59;3.20;;;1.70;;
74487;SDS011;63019;51.080;13.642;2023-06-14T01:31:03;2.42;;;1.60;;
74487;SDS011;63019;51.080;13.642;2023-06-14T01:32:07;3.38;;;1.30;;
74487;SDS011;63019;51.080;13.642;2023-06-14T01:33:09;3.00;;;1.50;;
74487;SDS011;63019;51.080;13.642;2023-06-14T01:34:15;3.05;;;1.52;;
74487;SDS011;63019;51.080;13.642;2023-06-14T01:35:17;5.30;;;1.47;;
74487;SDS011;63019;51.080;13.642;2023-06-14T01:36:19;8.20;;;1.50;;
74487;SDS011;63019;51.080;13.642;2023-06-14T01:37:23;3.65;;;1.35;;
74487;SDS011;63019;51.080;13.642;2023-06-14T01:38:26;3.50;;;1.48;;
74487;SDS011;63019;51.080;13.642;2023-06-14T01:39:29;10.40;;;1.20;;
74487;SDS011;63019;51.080;13.642;2023-06-14T01:40:32;3.15;;;1.30;;
74487;SDS011;63019;51.080;13.642;2023-06-14T01:41:36;2.08;;;1.40;;
74487;SDS011;63019;51.080;13.642;2023-06-14T01:42:38;2.35;;;1.40;;
74487;SDS011;63019;51.080;13.642;2023-06-14T01:43:40;4.25;;;1.60;;
74487;SDS011;63019;51.080;13.642;2023-06-14T01:44:43;3.25;;;1.50;;
74487;SDS011;63019;51.080;13.642;2023-06-14T01:45:46;5.30;;;1.40;;
74487;SDS011;63019;51.080;13.642;2023-06-14T01:46:50;3.97;;;1.60;;
74487;SDS011;63019;51.080;13.642;2023-06-14T01:47:52;3.90;;;1.67;;
74487;SDS011;63019;51.080;13.642;2023-06-14T01:48:54;2.67;;;1.50;;
74487;SDS011;63019;51.080;13.642;2023-06-14T01:49:56;6.30;;;1.70;;
74487;SDS011;63019;51.080;13.642;2023-06-14T01:50:58;3.25;;;1.40;;
74487;SDS011;63019;51.080;13.642;2023-06-14T01:52:00;3.85;;;1.42;;
74487;SDS011;63019;51.080;13.642;2023-06-14T01:53:02;2.90;;;1.40;;
74487;SDS011;63019;51.080;13.642;2023-06-14T01:54:04;3.05;;;1.40;;
74487;SDS011;63019;51.080;13.642;2023-06-14T01:55:06;5.32;;;1.83;;
74487;SDS011;63019;51.080;13.642;2023-06-14T01:56:09;2.40;;;1.40;;
74487;SDS011;63019;51.080;13.642;2023-06-14T01:57:11;3.90;;;1.50;;
74487;SDS011;63019;51.080;13.642;2023-06-14T01:58:13;3.75;;;1.38;;
74487;SDS011;63019;51.080;13.642;2023-06-14T01:59:17;2.80;;;1.27;;
74487;SDS011;63019;51.080;13.642;2023-06-14T02:00:19;2.63;;;1.20;;
74487;SDS011;63019;51.080;13.642;2023-06-14T02:01:22;2.50;;;1.27;;
74487;SDS011;63019;51.080;13.642;2023-06-14T02:02:24;2.85;;;1.70;;
74487;SDS011;63019;51.080;13.642;2023-06-14T02:03:26;7.95;;;1.83;;
74487;SDS011;63019;51.080;13.642;2023-06-14T02:04:28;4.72;;;1.50;;
74487;SDS011;63019;51.080;13.642;2023-06-14T02:05:30;4.35;;;1.50;;
74487;SDS011;63019;51.080;13.642;2023-06-14T02:06:32;2.97;;;1.47;;
74487;SDS011;63019;51.080;13.642;2023-06-14T02:07:35;6.10;;;1.60;;
74487;SDS011;63019;51.080;13.642;2023-06-14T02:08:37;3.00;;;1.20;;
74487;SDS011;63019;51.080;13.642;2023-06-14T02:09:40;5.35;;;1.65;;
74487;SDS011;63019;51.080;13.642;2023-06-14T02:10:42;3.90;;;1.55;;
74487;SDS011;63019;51.080;13.642;2023-06-14T02:11:44;5.60;;;1.67;;
74487;SDS011;63019;51.080;13.642;2023-06-14T02:12:46;3.05;;;1.58;;
74487;SDS011;63019;51.080;13.642;2023-06-14T02:13:48;2.67;;;1.48;;
74487;SDS011;63019;51.080;13.642;2023-06-14T02:14:50;3.38;;;1.80;;
74487;SDS011;63019;51.080;13.642;2023-06-14T02:15:52;4.20;;;1.40;;
74487;SDS011;63019;51.080;13.642;2023-06-14T02:16:56;2.40;;;1.43;;
74487;SDS011;63019;51.080;13.642;2023-06-14T02:17:58;3.70;;;1.40;;
74487;SDS011;63019;51.080;13.642;2023-06-14T02:19:00;6.28;;;1.65;;
74487;SDS011;63019;51.080;13.642;2023-06-14T02:20:01;3.80;;;1.63;;
74487;SDS011;63019;51.080;13.642;2023-06-14T02:21:06;3.78;;;1.55;;
74487;SDS011;63019;51.080;13.642;2023-06-14T02:22:07;2.35;;;1.45;;
74487;SDS011;63019;51.080;13.642;2023-06-14T02:23:09;3.83;;;1.50;;
74487;SDS011;63019;51.080;13.642;2023-06-14T02:24:11;3.53;;;1.70;;
74487;SDS011;63019;51.080;13.642;2023-06-14T02:25:14;4.45;;;1.65;;
74487;SDS011;63019;51.080;13.642;2023-06-14T02:26:16;5.30;;;1.70;;
74487;SDS011;63019;51.080;13.642;2023-06-14T02:27:18;2.87;;;1.37;;
74487;SDS011;63019;51.080;13.642;2023-06-14T02:28:20;4.57;;;1.75;;
74487;SDS011;63019;51.080;13.642;2023-06-14T02:29:22;3.28;;;1.60;;
74487;SDS011;63019;51.080;13.642;2023-06-14T02:30:24;4.70;;;1.25;;
74487;SDS011;63019;51.080;13.642;2023-06-14T02:31:26;5.13;;;1.42;;
74487;SDS011;63019;51.080;13.642;2023-06-14T02:32:28;3.05;;;1.67;;
74487;SDS011;63019;51.080;13.642;2023-06-14T02:33:30;2.72;;;1.45;;
74487;SDS011;63019;51.080;13.642;2023-06-14T02:34:32;4.38;;;1.67;;
74487;SDS011;63019;51.080;13.642;2023-06-14T02:35:35;3.72;;;1.75;;
74487;SDS011;63019;51.080;13.642;2023-06-14T02:36:38;2.00;;;1.50;;
74487;SDS011;63019;51.080;13.642;2023-06-14T02:37:43;2.47;;;1.67;;
74487;SDS011;63019;51.080;13.642;2023-06-14T02:38:45;3.20;;;1.40;;
74487;SDS011;63019;51.080;13.642;2023-06-14T02:39:48;3.13;;;1.60;;
74487;SDS011;63019;51.080;13.642;2023-06-14T02:40:49;2.95;;;1.63;;
74487;SDS011;63019;51.080;13.642;2023-06-14T02:41:51;4.03;;;1.50;;
74487;SDS011;63019;51.080;13.642;2023-06-14T02:42:53;4.68;;;1.70;;
74487;SDS011;63019;51.080;13.642;2023-06-14T02:43:55;3.33;;;1.63;;
74487;SDS011;63019;51.080;13.642;2023-06-14T02:44:57;2.95;;;1.80;;
74487;SDS011;63019;51.080;13.642;2023-06-14T02:45:59;3.30;;;1.60;;
74487;SDS011;63019;51.080;13.642;2023-06-14T02:47:01;3.83;;;1.90;;
74487;SDS011;63019;51.080;13.642;2023-06-14T02:48:03;4.73;;;1.67;;
74487;SDS011;63019;51.080;13.642;2023-06-14T02:49:05;2.33;;;1.52;;
74487;SDS011;63019;51.080;13.642;2023-06-14T02:50:07;4.07;;;1.67;;
74487;SDS011;63019;51.080;13.642;2023-06-14T02:51:10;2.65;;;1.65;;
74487;SDS011;63019;51.080;13.642;2023-06-14T02:52:12;4.53;;;1.67;;
74487;SDS011;63019;51.080;13.642;2023-06-14T02:53:14;3.58;;;1.60;;
74487;SDS011;63019;51.080;13.642;2023-06-14T02:54:15;2.20;;;1.40;;
74487;SDS011;63019;51.080;13.642;2023-06-14T02:55:17;2.13;;;1.58;;
74487;SDS011;63019;51.080;13.642;2023-06-14T02:56:19;3.45;;;1.80;;
74487;SDS011;63019;51.080;13.642;2023-06-14T02:57:21;1.70;;;1.40;;
74487;SDS011;63019;51.080;13.642;2023-06-14T02:58:24;3.07;;;1.47;;
74487;SDS011;63019;51.080;13.642;2023-06-14T02:59:26;4.82;;;1.90;;
74487;SDS011;63019;51.080;13.642;2023-06-14T03:00:28;5.60;;;1.73;;
74487;SDS011;63019;51.080;13.642;2023-06-14T03:01:31;2.67;;;1.77;;
74487;SDS011;63019;51.080;13.642;2023-06-14T03:02:36;5.82;;;1.77;;
74487;SDS011;63019;51.080;13.642;2023-06-14T03:03:38;3.67;;;1.60;;
74487;SDS011;63019;51.080;13.642;2023-06-14T03:04:40;6.90;;;1.67;;
74487;SDS011;63019;51.080;13.642;2023-06-14T03:05:46;3.72;;;1.83;;
74487;SDS011;63019;51.080;13.642;2023-06-14T03:06:50;4.18;;;1.77;;
74487;SDS011;63019;51.080;13.642;2023-06-14T03:07:52;4.90;;;1.77;;
74487;SDS011;63019;51.080;13.642;2023-06-14T03:08:55;3.37;;;1.60;;
74487;SDS011;63019;51.080;13.642;2023-06-14T03:10:01;5.90;;;1.60;;
74487;SDS011;63019;51.080;13.642;2023-06-14T03:11:04;3.05;;;1.63;;
74487;SDS011;63019;51.080;13.642;2023-06-14T03:12:09;2.42;;;1.42;;
74487;SDS011;63019;51.080;13.642;2023-06-14T03:13:11;3.20;;;1.70;;
74487;SDS011;63019;51.080;13.642;2023-06-14T03:14:13;3.85;;;1.85;;
74487;SDS011;63019;51.080;13.642;2023-06-14T03:15:15;3.15;;;1.70;;
74487;SDS011;63019;51.080;13.642;2023-06-14T03:16:19;4.05;;;1.65;;
74487;SDS011;63019;51.080;13.642;2023-06-14T03:17:21;6.35;;;1.80;;
74487;SDS011;63019;51.080;13.642;2023-06-14T03:18:23;4.28;;;1.77;;
74487;SDS011;63019;51.080;13.642;2023-06-14T03:19:28;4.43;;;1.70;;
74487;SDS011;63019;51.080;13.642;2023-06-14T03:20:30;4.60;;;1.60;;
74487;SDS011;63019;51.080;13.642;2023-06-14T03:21:34;6.88;;;2.30;;
74487;SDS011;63019;51.080;13.642;2023-06-14T03:22:36;3.05;;;1.50;;
74487;SDS011;63019;51.080;13.642;2023-06-14T03:23:38;6.57;;;2.30;;
74487;SDS011;63019;51.080;13.642;2023-06-14T03:24:40;3.63;;;1.42;;
74487;SDS011;63019;51.080;13.642;2023-06-14T03:25:42;3.75;;;1.58;;
74487;SDS011;63019;51.080;13.642;2023-06-14T03:26:44;3.80;;;1.92;;
74487;SDS011;63019;51.080;13.642;2023-06-14T03:27:46;3.35;;;1.90;;
74487;SDS011;63019;51.080;13.642;2023-06-14T03:28:48;1.95;;;1.58;;
74487;SDS011;63019;51.080;13.642;2023-06-14T03:29:51;5.03;;;1.50;;
74487;SDS011;63019;51.080;13.642;2023-06-14T03:30:53;2.35;;;1.60;;
74487;SDS011;63019;51.080;13.642;2023-06-14T03:31:58;3.25;;;1.50;;
74487;SDS011;63019;51.080;13.642;2023-06-14T03:33:04;2.33;;;1.60;;
74487;SDS011;63019;51.080;13.642;2023-06-14T03:34:06;2.95;;;1.80;;
74487;SDS011;63019;51.080;13.642;2023-06-14T03:35:08;5.03;;;1.75;;
74487;SDS011;63019;51.080;13.642;2023-06-14T03:36:10;4.82;;;1.83;;
74487;SDS011;63019;51.080;13.642;2023-06-14T03:37:12;5.03;;;1.60;;
74487;SDS011;63019;51.080;13.642;2023-06-14T03:38:13;3.40;;;1.65;;
74487;SDS011;63019;51.080;13.642;2023-06-14T03:39:16;6.53;;;1.70;;
74487;SDS011;63019;51.080;13.642;2023-06-14T03:40:18;3.27;;;1.80;;
74487;SDS011;63019;51.080;13.642;2023-06-14T03:41:21;5.93;;;1.83;;
74487;SDS011;63019;51.080;13.642;2023-06-14T03:42:23;3.50;;;1.67;;
74487;SDS011;63019;51.080;13.642;2023-06-14T03:43:24;5.65;;;2.00;;
74487;SDS011;63019;51.080;13.642;2023-06-14T03:44:26;3.17;;;1.83;;
74487;SDS011;63019;51.080;13.642;2023-06-14T03:45:29;4.30;;;1.70;;
74487;SDS011;63019;51.080;13.642;2023-06-14T03:46:30;6.25;;;1.80;;
74487;SDS011;63019;51.080;13.642;2023-06-14T03:47:32;3.08;;;1.70;;
74487;SDS011;63019;51.080;13.642;2023-06-14T03:48:35;4.60;;;1.60;;
74487;SDS011;63019;51.080;13.642;2023-06-14T03:49:37;5.65;;;1.83;;
74487;SDS011;63019;51.080;13.642;2023-06-14T03:50:38;3.63;;;1.80;;
74487;SDS011;63019;51.080;13.642;2023-06-14T03:51:40;2.75;;;1.90;;
74487;SDS011;63019;51.080;13.642;2023-06-14T03:52:42;2.63;;;1.73;;
74487;SDS011;63019;51.080;13.642;2023-06-14T03:53:45;4.07;;;1.80;;
74487;SDS011;63019;51.080;13.642;2023-06-14T03:55:07;5.85;;;1.80;;
74487;SDS011;63019;51.080;13.642;2023-06-14T03:56:12;5.25;;;1.58;;
74487;SDS011;63019;51.080;13.642;2023-06-14T03:57:14;2.72;;;1.52;;
74487;SDS011;63019;51.080;13.642;2023-06-14T03:58:16;6.15;;;2.00;;
74487;SDS011;63019;51.080;13.642;2023-06-14T03:59:18;3.10;;;1.75;;
74487;SDS011;63019;51.080;13.642;2023-06-14T04:00:20;3.28;;;1.90;;
74487;SDS011;63019;51.080;13.642;2023-06-14T04:01:22;3.53;;;1.60;;
74487;SDS011;63019;51.080;13.642;2023-06-14T04:02:28;4.15;;;1.70;;
74487;SDS011;63019;51.080;13.642;2023-06-14T04:03:30;3.45;;;2.30;;
74487;SDS011;63019;51.080;13.642;2023-06-14T04:04:33;5.07;;;2.17;;
74487;SDS011;63019;51.080;13.642;2023-06-14T04:05:36;4.57;;;1.75;;
74487;SDS011;63019;51.080;13.642;2023-06-14T04:06:38;3.15;;;1.90;;
74487;SDS011;63019;51.080;13.642;2023-06-14T04:07:42;3.13;;;1.42;;
74487;SDS011;63019;51.080;13.642;2023-06-14T04:08:46;8.23;;;1.90;;
74487;SDS011;63019;51.080;13.642;2023-06-14T04:09:50;3.50;;;1.60;;
74487;SDS011;63019;51.080;13.642;2023-06-14T04:10:52;10.88;;;2.20;;
74487;SDS011;63019;51.080;13.642;2023-06-14T04:11:54;5.83;;;1.90;;
74487;SDS011;63019;51.080;13.642;2023-06-14T04:12:56;7.32;;;2.00;;
74487;SDS011;63019;51.080;13.642;2023-06-14T04:13:58;4.10;;;1.70;;
74487;SDS011;63019;51.080;13.642;2023-06-14T04:15:00;4.70;;;1.85;;
74487;SDS011;63019;51.080;13.642;2023-06-14T04:16:19;5.10;;;1.80;;
74487;SDS011;63019;51.080;13.642;2023-06-14T04:17:21;4.53;;;1.88;;
74487;SDS011;63019;51.080;13.642;2023-06-14T04:18:24;4.55;;;1.90;;
74487;SDS011;63019;51.080;13.642;2023-06-14T04:19:27;2.72;;;1.98;;
74487;SDS011;63019;51.080;13.642;2023-06-14T04:20:28;5.38;;;1.73;;
74487;SDS011;63019;51.080;13.642;2023-06-14T04:21:31;3.13;;;1.77;;
74487;SDS011;63019;51.080;13.642;2023-06-14T04:22:36;3.50;;;2.03;;
74487;SDS011;63019;51.080;13.642;2023-06-14T04:23:38;3.85;;;1.65;;
74487;SDS011;63019;51.080;13.642;2023-06-14T04:24:40;4.60;;;2.22;;
74487;SDS011;63019;51.080;13.642;2023-06-14T04:25:43;5.18;;;2.08;;
74487;SDS011;63019;51.080;13.642;2023-06-14T04:26:48;3.38;;;1.80;;
74487;SDS011;63019;51.080;13.642;2023-06-14T04:27:50;3.28;;;1.88;;
74487;SDS011;63019;51.080;13.642;2023-06-14T04:28:53;2.67;;;1.95;;
74487;SDS011;63019;51.080;13.642;2023-06-14T04:29:58;3.65;;;1.98;;
74487;SDS011;63019;51.080;13.642;2023-06-14T04:31:00;5.18;;;2.00;;
74487;SDS011;63019;51.080;13.642;2023-06-14T04:32:03;5.90;;;2.20;;
74487;SDS011;63019;51.080;13.642;2023-06-14T04:33:06;3.23;;;2.03;;
74487;SDS011;63019;51.080;13.642;2023-06-14T04:34:09;3.58;;;1.90;;
74487;SDS011;63019;51.080;13.642;2023-06-14T04:35:17;3.92;;;2.00;;
74487;SDS011;63019;51.080;13.642;2023-06-14T04:36:19;4.95;;;2.30;;
74487;SDS011;63019;51.080;13.642;2023-06-14T04:37:21;3.70;;;2.10;;
74487;SDS011;63019;51.080;13.642;2023-06-14T04:38:23;6.28;;;2.28;;
74487;SDS011;63019;51.080;13.642;2023-06-14T04:39:27;5.30;;;2.22;;
74487;SDS011;63019;51.080;13.642;2023-06-14T04:40:29;2.80;;;1.80;;
74487;SDS011;63019;51.080;13.642;2023-06-14T04:41:30;4.45;;;2.08;;
74487;SDS011;63019;51.080;13.642;2023-06-14T04:42:32;6.85;;;2.10;;
74487;SDS011;63019;51.080;13.642;2023-06-14T04:43:38;3.87;;;2.20;;
74487;SDS011;63019;51.080;13.642;2023-06-14T04:44:41;9.02;;;2.33;;
74487;SDS011;63019;51.080;13.642;2023-06-14T04:45:43;4.28;;;2.15;;
74487;SDS011;63019;51.080;13.642;2023-06-14T04:46:47;5.90;;;2.33;;
74487;SDS011;63019;51.080;13.642;2023-06-14T04:47:49;5.68;;;2.20;;
74487;SDS011;63019;51.080;13.642;2023-06-14T04:48:52;3.85;;;2.22;;
74487;SDS011;63019;51.080;13.642;2023-06-14T04:49:54;3.75;;;1.90;;
74487;SDS011;63019;51.080;13.642;2023-06-14T04:50:57;3.05;;;1.95;;
74487;SDS011;63019;51.080;13.642;2023-06-14T04:51:59;4.03;;;2.30;;
74487;SDS011;63019;51.080;13.642;2023-06-14T04:53:03;6.47;;;2.05;;
74487;SDS011;63019;51.080;13.642;2023-06-14T04:54:04;7.00;;;2.27;;
74487;SDS011;63019;51.080;13.642;2023-06-14T04:55:11;8.02;;;2.20;;
74487;SDS011;63019;51.080;13.642;2023-06-14T04:56:15;4.10;;;2.03;;
74487;SDS011;63019;51.080;13.642;2023-06-14T04:57:18;5.97;;;2.30;;
74487;SDS011;63019;51.080;13.642;2023-06-14T04:58:23;4.47;;;2.35;;
74487;SDS011;63019;51.080;13.642;2023-06-14T04:59:25;6.68;;;2.50;;
74487;SDS011;63019;51.080;13.642;2023-06-14T05:00:26;6.05;;;2.50;;
74487;SDS011;63019;51.080;13.642;2023-06-14T05:01:28;4.18;;;2.50;;
74487;SDS011;63019;51.080;13.642;2023-06-14T05:02:30;5.65;;;2.60;;
74487;SDS011;63019;51.080;13.642;2023-06-14T05:03:32;3.25;;;1.98;;
74487;SDS011;63019;51.080;13.642;2023-06-14T05:04:35;7.27;;;2.50;;
74487;SDS011;63019;51.080;13.642;2023-06-14T05:05:41;4.65;;;2.42;;
74487;SDS011;63019;51.080;13.642;2023-06-14T05:06:43;5.53;;;2.25;;
74487;SDS011;63019;51.080;13.642;2023-06-14T05:07:51;3.92;;;2.03;;
74487;SDS011;63019;51.080;13.642;2023-06-14T05:08:53;6.30;;;2.60;;
74487;SDS011;63019;51.080;13.642;2023-06-14T05:09:55;4.70;;;2.20;;
74487;SDS011;63019;51.080;13.642;2023-06-14T05:10:57;9.85;;;3.38;;
74487;SDS011;63019;51.080;13.642;2023-06-14T05:11:59;4.88;;;2.22;;
74487;SDS011;63019;51.080;13.642;2023-06-14T05:13:02;6.97;;;2.40;;
74487;SDS011;63019;51.080;13.642;2023-06-14T05:14:04;4.60;;;2.60;;
74487;SDS011;63019;51.080;13.642;2023-06-14T05:15:07;6.60;;;2.50;;
74487;SDS011;63019;51.080;13.642;2023-06-14T05:16:10;6.78;;;2.38;;
74487;SDS011;63019;51.080;13.642;2023-06-14T05:17:12;11.20;;;2.40;;
74487;SDS011;63019;51.080;13.642;2023-06-14T05:18:14;6.47;;;2.58;;
74487;SDS011;63019;51.080;13.642;2023-06-14T05:19:16;5.10;;;2.50;;
74487;SDS011;63019;51.080;13.642;2023-06-14T05:20:21;8.20;;;2.63;;
74487;SDS011;63019;51.080;13.642;2023-06-14T05:21:27;8.07;;;2.45;;
74487;SDS011;63019;51.080;13.642;2023-06-14T05:22:29;6.82;;;2.30;;
74487;SDS011;63019;51.080;13.642;2023-06-14T05:23:31;6.57;;;2.60;;
74487;SDS011;63019;51.080;13.642;2023-06-14T05:24:33;10.80;;;2.42;;
74487;SDS011;63019;51.080;13.642;2023-06-14T05:25:35;12.07;;;3.80;;
74487;SDS011;63019;51.080;13.642;2023-06-14T05:26:36;4.63;;;2.35;;
74487;SDS011;63019;51.080;13.642;2023-06-14T05:27:38;4.60;;;2.47;;
74487;SDS011;63019;51.080;13.642;2023-06-14T05:28:42;3.17;;;2.20;;
74487;SDS011;63019;51.080;13.642;2023-06-14T05:29:44;10.63;;;4.07;;
74487;SDS011;63019;51.080;13.642;2023-06-14T05:30:46;5.88;;;2.20;;
74487;SDS011;63019;51.080;13.642;2023-06-14T05:31:48;5.28;;;2.55;;
74487;SDS011;63019;51.080;13.642;2023-06-14T05:32:49;16.33;;;3.22;;
74487;SDS011;63019;51.080;13.642;2023-06-14T05:33:52;6.60;;;2.55;;
74487;SDS011;63019;51.080;13.642;2023-06-14T05:34:54;7.10;;;2.33;;
74487;SDS011;63019;51.080;13.642;2023-06-14T05:35:56;10.67;;;2.57;;
74487;SDS011;63019;51.080;13.642;2023-06-14T05:36:58;4.70;;;2.83;;
74487;SDS011;63019;51.080;13.642;2023-06-14T05:38:00;6.60;;;2.25;;
74487;SDS011;63019;51.080;13.642;2023-06-14T05:39:02;7.05;;;2.70;;
74487;SDS011;63019;51.080;13.642;2023-06-14T05:40:05;7.25;;;2.70;;
74487;SDS011;63019;51.080;13.642;2023-06-14T05:41:10;5.63;;;2.20;;
74487;SDS011;63019;51.080;13.642;2023-06-14T05:42:12;3.22;;;2.17;;
74487;SDS011;63019;51.080;13.642;2023-06-14T05:43:13;4.40;;;2.38;;
74487;SDS011;63019;51.080;13.642;2023-06-14T05:44:15;7.00;;;2.47;;
74487;SDS011;63019;51.080;13.642;2023-06-14T05:45:17;4.22;;;2.47;;
74487;SDS011;63019;51.080;13.642;2023-06-14T05:46:19;4.73;;;2.40;;
74487;SDS011;63019;51.080;13.642;2023-06-14T05:47:23;7.15;;;2.53;;
74487;SDS011;63019;51.080;13.642;2023-06-14T05:48:25;4.97;;;2.53;;
74487;SDS011;63019;51.080;13.642;2023-06-14T05:49:27;5.00;;;2.45;;
74487;SDS011;63019;51.080;13.642;2023-06-14T05:50:29;5.78;;;2.50;;
74487;SDS011;63019;51.080;13.642;2023-06-14T05:51:31;5.50;;;2.55;;
74487;SDS011;63019;51.080;13.642;2023-06-14T05:52:33;4.78;;;2.30;;
74487;SDS011;63019;51.080;13.642;2023-06-14T05:53:36;7.72;;;2.40;;
74487;SDS011;63019;51.080;13.642;2023-06-14T05:54:38;4.28;;;2.65;;
74487;SDS011;63019;51.080;13.642;2023-06-14T05:55:40;9.23;;;2.40;;
74487;SDS011;63019;51.080;13.642;2023-06-14T05:56:42;10.07;;;2.50;;
74487;SDS011;63019;51.080;13.642;2023-06-14T05:57:43;6.10;;;2.83;;
74487;SDS011;63019;51.080;13.642;2023-06-14T05:58:45;5.28;;;2.60;;
74487;SDS011;63019;51.080;13.642;2023-06-14T05:59:47;6.28;;;2.55;;
74487;SDS011;63019;51.080;13.642;2023-06-14T06:00:49;3.00;;;2.10;;
74487;SDS011;63019;51.080;13.642;2023-06-14T06:01:52;9.10;;;2.40;;
74487;SDS011;63019;51.080;13.642;2023-06-14T06:02:54;10.75;;;2.80;;
74487;SDS011;63019;51.080;13.642;2023-06-14T06:03:59;5.00;;;2.70;;
74487;SDS011;63019;51.080;13.642;2023-06-14T06:05:01;4.75;;;2.40;;
74487;SDS011;63019;51.080;13.642;2023-06-14T06:06:03;4.43;;;2.25;;
74487;SDS011;63019;51.080;13.642;2023-06-14T06:07:05;3.30;;;2.47;;
74487;SDS011;63019;51.080;13.642;2023-06-14T06:08:07;4.00;;;2.38;;
74487;SDS011;63019;51.080;13.642;2023-06-14T06:09:09;4.70;;;2.45;;
74487;SDS011;63019;51.080;13.642;2023-06-14T06:10:11;3.13;;;2.40;;
74487;SDS011;63019;51.080;13.642;2023-06-14T06:11:12;8.48;;;2.58;;
74487;SDS011;63019;51.080;13.642;2023-06-14T06:12:14;6.80;;;2.80;;
74487;SDS011;63019;51.080;13.642;2023-06-14T06:13:16;8.20;;;2.55;;
74487;SDS011;63019;51.080;13.642;2023-06-14T06:14:18;5.32;;;2.55;;
74487;SDS011;63019;51.080;13.642;2023-06-14T06:15:20;4.65;;;2.55;;